sensor_id;sensor_type;location;lat;lon;timestamp;pressure;altitude;pressure_sealevel;temperature
78917;BMP280;68315;48.608;11.436;2023-05-20T00:00:21;97297.19;;;13.51
78917;BMP280;68315;48.608;11.436;2023-05-20T00:02:46;97303.09;;;13.48
78917;BMP280;68315;48.608;11.436;2023-05-20T00:05:12;97284.69;;;13.43
78917;BMP280;68315;48.608;11.436;2023-05-20T00:07:37;97294.41;;;13.44
78917;BMP280;68315;48.608;11.436;2023-05-20T00:10:02;97292.78;;;13.41
78917;BMP280;68315;48.608;11.436;2023-05-20T00:12:28;97290.34;;;13.37
78917;BMP280;68315;48.608;11.436;2023-05-20T00:14:53;97293.66;;;13.36
78917;BMP280;68315;48.608;11.436;2023-05-20T00:17:18;97296.97;;;13.34
78917;BMP280;68315;48.608;11.436;2023-05-20T00:19:43;97293.78;;;13.30
78917;BMP280;68315;48.608;11.436;2023-05-20T00:22:09;97297.66;;;13.27
78917;BMP280;68315;48.608;11.436;2023-05-20T00:24:34;97293.06;;;13.22
78917;BMP280;68315;48.608;11.436;2023-05-20T00:26:59;97290.09;;;13.20
78917;BMP280;68315;48.608;11.436;2023-05-20T00:29:24;97293.59;;;13.21
78917;BMP280;68315;48.608;11.436;2023-05-20T00:31:50;97302.41;;;13.19
78917;BMP280;68315;48.608;11.436;2023-05-20T00:34:15;97291.22;;;13.17
78917;BMP280;68315;48.608;11.436;2023-05-20T00:36:40;97287.72;;;13.17
78917;BMP280;68315;48.608;11.436;2023-05-20T00:39:07;97285.66;;;13.10
78917;BMP280;68315;48.608;11.436;2023-05-20T00:41:32;97285.25;;;13.06
78917;BMP280;68315;48.608;11.436;2023-05-20T00:43:57;97290.41;;;13.02
78917;BMP280;68315;48.608;11.436;2023-05-20T00:46:23;97285.63;;;13.02
78917;BMP280;68315;48.608;11.436;2023-05-20T00:48:48;97280.66;;;13.01
78917;BMP280;68315;48.608;11.436;2023-05-20T00:51:14;97286.91;;;13.01
78917;BMP280;68315;48.608;11.436;2023-05-20T00:53:40;97289.44;;;12.99
78917;BMP280;68315;48.608;11.436;2023-05-20T00:56:07;97278.78;;;12.96
78917;BMP280;68315;48.608;11.436;2023-05-20T00:58:33;97284.84;;;12.94
78917;BMP280;68315;48.608;11.436;2023-05-20T01:01:00;97284.84;;;12.94
78917;BMP280;68315;48.608;11.436;2023-05-20T01:03:25;97281.88;;;12.92
78917;BMP280;68315;48.608;11.436;2023-05-20T01:05:51;97287.25;;;12.90
78917;BMP280;68315;48.608;11.436;2023-05-20T01:08:16;97280.78;;;12.88
78917;BMP280;68315;48.608;11.436;2023-05-20T01:10:45;97283.91;;;12.84
78917;BMP280;68315;48.608;11.436;2023-05-20T01:13:15;97277.22;;;12.80
78917;BMP280;68315;48.608;11.436;2023-05-20T01:15:42;97279.81;;;12.78
78917;BMP280;68315;48.608;11.436;2023-05-20T01:18:09;97273.91;;;12.74
78917;BMP280;68315;48.608;11.436;2023-05-20T01:20:35;97266.72;;;12.71
78917;BMP280;68315;48.608;11.436;2023-05-20T01:23:02;97272.03;;;12.69
78917;BMP280;68315;48.608;11.436;2023-05-20T01:25:27;97267.56;;;12.65
78917;BMP280;68315;48.608;11.436;2023-05-20T01:27:54;97259.88;;;12.64
78917;BMP280;68315;48.608;11.436;2023-05-20T01:30:20;97266.66;;;12.63
78917;BMP280;68315;48.608;11.436;2023-05-20T01:32:58;97262.22;;;12.60
78917;BMP280;68315;48.608;11.436;2023-05-20T01:35:25;97257.81;;;12.57
78917;BMP280;68315;48.608;11.436;2023-05-20T01:37:52;97254.66;;;12.53
78917;BMP280;68315;48.608;11.436;2023-05-20T01:40:18;97263.47;;;12.51
78917;BMP280;68315;48.608;11.436;2023-05-20T01:42:44;97262.53;;;12.49
78917;BMP280;68315;48.608;11.436;2023-05-20T01:45:11;97256.81;;;12.47
78917;BMP280;68315;48.608;11.436;2023-05-20T01:47:36;97252.97;;;12.42
78917;BMP280;68315;48.608;11.436;2023-05-20T01:50:02;97249.78;;;12.38
78917;BMP280;68315;48.608;11.436;2023-05-20T01:52:27;97245.56;;;12.37
78917;BMP280;68315;48.608;11.436;2023-05-20T01:54:53;97245.38;;;12.35
78917;BMP280;68315;48.608;11.436;2023-05-20T01:57:19;97260.22;;;12.32
78917;BMP280;68315;48.608;11.436;2023-05-20T01:59:45;97252.28;;;12.29
78917;BMP280;68315;48.608;11.436;2023-05-20T02:02:10;97254.66;;;12.25
78917;BMP280;68315;48.608;11.436;2023-05-20T02:04:35;97260.72;;;12.23
78917;BMP280;68315;48.608;11.436;2023-05-20T02:07:00;97257.75;;;12.21
78917;BMP280;68315;48.608;11.436;2023-05-20T02:09:27;97247.81;;;12.18
78917;BMP280;68315;48.608;11.436;2023-05-20T02:11:52;97246.88;;;12.16
78917;BMP280;68315;48.608;11.436;2023-05-20T02:14:17;97247.63;;;12.16
78917;BMP280;68315;48.608;11.436;2023-05-20T02:16:43;97244.69;;;12.14
78917;BMP280;68315;48.608;11.436;2023-05-20T02:19:08;97236.75;;;12.11
78917;BMP280;68315;48.608;11.436;2023-05-20T02:21:40;97234.34;;;12.07
78917;BMP280;68315;48.608;11.436;2023-05-20T02:24:05;97233.94;;;12.03
78917;BMP280;68315;48.608;11.436;2023-05-20T02:26:31;97235.03;;;12.00
78917;BMP280;68315;48.608;11.436;2023-05-20T02:28:57;97246.75;;;12.01
78917;BMP280;68315;48.608;11.436;2023-05-20T02:31:22;97239.78;;;12.00
78917;BMP280;68315;48.608;11.436;2023-05-20T02:33:47;97234.59;;;11.96
78917;BMP280;68315;48.608;11.436;2023-05-20T02:36:12;97239.19;;;11.94
78917;BMP280;68315;48.608;11.436;2023-05-20T02:38:38;97240.78;;;11.89
78917;BMP280;68315;48.608;11.436;2023-05-20T02:41:03;97230.88;;;11.86
78917;BMP280;68315;48.608;11.436;2023-05-20T02:43:29;97235.44;;;11.84
78917;BMP280;68315;48.608;11.436;2023-05-20T02:45:55;97234.47;;;11.81
78917;BMP280;68315;48.608;11.436;2023-05-20T02:48:21;97245.50;;;11.81
78917;BMP280;68315;48.608;11.436;2023-05-20T02:50:46;97248.06;;;11.79
78917;BMP280;68315;48.608;11.436;2023-05-20T02:53:12;97242.34;;;11.77
78917;BMP280;68315;48.608;11.436;2023-05-20T02:55:37;97239.78;;;11.79
78917;BMP280;68315;48.608;11.436;2023-05-20T02:58:02;97239.59;;;11.77
78917;BMP280;68315;48.608;11.436;2023-05-20T03:00:28;97225.63;;;11.75
78917;BMP280;68315;48.608;11.436;2023-05-20T03:02:56;97230.59;;;11.76
78917;BMP280;68315;48.608;11.436;2023-05-20T03:05:23;97226.78;;;11.80
78917;BMP280;68315;48.608;11.436;2023-05-20T03:07:48;97237.25;;;11.81
78917;BMP280;68315;48.608;11.436;2023-05-20T03:10:14;97239.66;;;11.85
78917;BMP280;68315;48.608;11.436;2023-05-20T03:12:40;97240.38;;;11.85
78917;BMP280;68315;48.608;11.436;2023-05-20T03:15:05;97242.94;;;11.83
78917;BMP280;68315;48.608;11.436;2023-05-20T03:17:31;97236.69;;;11.83
78917;BMP280;68315;48.608;11.436;2023-05-20T03:19:56;97235.22;;;11.82
78917;BMP280;68315;48.608;11.436;2023-05-20T03:22:21;97231.53;;;11.79
78917;BMP280;68315;48.608;11.436;2023-05-20T03:24:47;97241.78;;;11.78
78917;BMP280;68315;48.608;11.436;2023-05-20T03:27:12;97245.28;;;11.79
78917;BMP280;68315;48.608;11.436;2023-05-20T03:29:38;97245.84;;;11.77
78917;BMP280;68315;48.608;11.436;2023-05-20T03:32:03;97251.84;;;11.76
78917;BMP280;68315;48.608;11.436;2023-05-20T03:34:28;97252.06;;;11.78
78917;BMP280;68315;48.608;11.436;2023-05-20T03:36:54;97249.53;;;11.80
78917;BMP280;68315;48.608;11.436;2023-05-20T03:39:21;97255.78;;;11.81
78917;BMP280;68315;48.608;11.436;2023-05-20T03:41:46;97254.69;;;11.84
78917;BMP280;68315;48.608;11.436;2023-05-20T03:44:11;97260.41;;;11.86
78917;BMP280;68315;48.608;11.436;2023-05-20T03:46:37;97251.09;;;11.89
78917;BMP280;68315;48.608;11.436;2023-05-20T03:49:02;97244.25;;;11.90
78917;BMP280;68315;48.608;11.436;2023-05-20T03:51:28;97255.50;;;11.92
78917;BMP280;68315;48.608;11.436;2023-05-20T03:53:53;97254.22;;;11.93
78917;BMP280;68315;48.608;11.436;2023-05-20T03:56:18;97256.47;;;11.94
78917;BMP280;68315;48.608;11.436;2023-05-20T03:58:43;97253.16;;;11.96
78917;BMP280;68315;48.608;11.436;2023-05-20T04:01:09;97258.88;;;11.98
78917;BMP280;68315;48.608;11.436;2023-05-20T04:03:37;97255.75;;;12.01
78917;BMP280;68315;48.608;11.436;2023-05-20T04:06:02;97256.91;;;12.06
78917;BMP280;68315;48.608;11.436;2023-05-20T04:08:27;97251.41;;;12.06
78917;BMP280;68315;48.608;11.436;2023-05-20T04:10:56;97248.31;;;12.09
78917;BMP280;68315;48.608;11.436;2023-05-20T04:13:23;97243.19;;;12.13
78917;BMP280;68315;48.608;11.436;2023-05-20T04:15:49;97246.16;;;12.15
78917;BMP280;68315;48.608;11.436;2023-05-20T04:18:16;97242.28;;;12.18
78917;BMP280;68315;48.608;11.436;2023-05-20T04:20:41;97246.00;;;12.21
78917;BMP280;68315;48.608;11.436;2023-05-20T04:23:06;97257.25;;;12.23
78917;BMP280;68315;48.608;11.436;2023-05-20T04:25:31;97257.25;;;12.23
78917;BMP280;68315;48.608;11.436;2023-05-20T04:27:59;97258.69;;;12.24
78917;BMP280;68315;48.608;11.436;2023-05-20T04:30:24;97258.91;;;12.26
78917;BMP280;68315;48.608;11.436;2023-05-20T04:32:50;97249.88;;;12.25
78917;BMP280;68315;48.608;11.436;2023-05-20T04:35:15;97255.19;;;12.23
78917;BMP280;68315;48.608;11.436;2023-05-20T04:37:41;97243.97;;;12.21
78917;BMP280;68315;48.608;11.436;2023-05-20T04:40:09;97247.81;;;12.18
78917;BMP280;68315;48.608;11.436;2023-05-20T04:42:34;97242.88;;;12.17
78917;BMP280;68315;48.608;11.436;2023-05-20T04:45:00;97252.78;;;12.20
78917;BMP280;68315;48.608;11.436;2023-05-20T04:47:28;97250.25;;;12.22
78917;BMP280;68315;48.608;11.436;2023-05-20T04:49:55;97243.78;;;12.19
78917;BMP280;68315;48.608;11.436;2023-05-20T04:52:25;97245.03;;;12.18
78917;BMP280;68315;48.608;11.436;2023-05-20T04:54:51;97240.47;;;12.21
78917;BMP280;68315;48.608;11.436;2023-05-20T04:57:17;97235.25;;;12.30
78917;BMP280;68315;48.608;11.436;2023-05-20T04:59:46;97239.69;;;12.41
78917;BMP280;68315;48.608;11.436;2023-05-20T05:02:11;97245.66;;;12.52
78917;BMP280;68315;48.608;11.436;2023-05-20T05:04:37;97239.50;;;12.67
78917;BMP280;68315;48.608;11.436;2023-05-20T05:07:02;97248.22;;;12.86
78917;BMP280;68315;48.608;11.436;2023-05-20T05:09:27;97247.72;;;13.03
78917;BMP280;68315;48.608;11.436;2023-05-20T05:11:53;97241.19;;;13.21
78917;BMP280;68315;48.608;11.436;2023-05-20T05:14:18;97237.00;;;13.35
78917;BMP280;68315;48.608;11.436;2023-05-20T05:16:43;97231.31;;;13.48
78917;BMP280;68315;48.608;11.436;2023-05-20T05:19:08;97225.97;;;13.58
78917;BMP280;68315;48.608;11.436;2023-05-20T05:21:34;97229.66;;;13.68
78917;BMP280;68315;48.608;11.436;2023-05-20T05:23:59;97234.63;;;13.77
78917;BMP280;68315;48.608;11.436;2023-05-20T05:26:24;97225.41;;;13.89
78917;BMP280;68315;48.608;11.436;2023-05-20T05:28:51;97220.06;;;14.06
78917;BMP280;68315;48.608;11.436;2023-05-20T05:31:16;97215.44;;;14.24
78917;BMP280;68315;48.608;11.436;2023-05-20T05:33:42;97217.97;;;14.37
78917;BMP280;68315;48.608;11.436;2023-05-20T05:36:07;97218.84;;;14.55
78917;BMP280;68315;48.608;11.436;2023-05-20T05:38:32;97211.25;;;14.70
78917;BMP280;68315;48.608;11.436;2023-05-20T05:40:57;97214.31;;;14.89
78917;BMP280;68315;48.608;11.436;2023-05-20T05:43:23;97215.69;;;15.05
78917;BMP280;68315;48.608;11.436;2023-05-20T05:45:48;97216.69;;;15.25
78917;BMP280;68315;48.608;11.436;2023-05-20T05:48:13;97214.00;;;15.42
78917;BMP280;68315;48.608;11.436;2023-05-20T05:50:43;97216.22;;;15.61
78917;BMP280;68315;48.608;11.436;2023-05-20T05:53:08;97210.25;;;15.72
78917;BMP280;68315;48.608;11.436;2023-05-20T05:55:33;97217.94;;;15.81
78917;BMP280;68315;48.608;11.436;2023-05-20T05:57:58;97216.06;;;15.83
78917;BMP280;68315;48.608;11.436;2023-05-20T06:00:24;97215.03;;;15.96
78917;BMP280;68315;48.608;11.436;2023-05-20T06:02:49;97215.06;;;16.13
78917;BMP280;68315;48.608;11.436;2023-05-20T06:05:15;97207.72;;;16.25
78917;BMP280;68315;48.608;11.436;2023-05-20T06:07:43;97214.44;;;16.39
78917;BMP280;68315;48.608;11.436;2023-05-20T06:10:09;97208.19;;;16.48
78917;BMP280;68315;48.608;11.436;2023-05-20T06:12:34;97210.31;;;16.57
78917;BMP280;68315;48.608;11.436;2023-05-20T06:15:00;97208.34;;;16.67
78917;BMP280;68315;48.608;11.436;2023-05-20T06:17:25;97211.31;;;16.79
78917;BMP280;68315;48.608;11.436;2023-05-20T06:19:50;97200.81;;;16.77
78917;BMP280;68315;48.608;11.436;2023-05-20T06:22:16;97206.59;;;16.72
78917;BMP280;68315;48.608;11.436;2023-05-20T06:24:41;97214.81;;;16.70
78917;BMP280;68315;48.608;11.436;2023-05-20T06:27:15;97209.44;;;16.81
78917;BMP280;68315;48.608;11.436;2023-05-20T06:29:43;97203.88;;;16.98
78917;BMP280;68315;48.608;11.436;2023-05-20T06:32:08;97201.34;;;17.19
78917;BMP280;68315;48.608;11.436;2023-05-20T06:34:33;97208.88;;;17.45
78917;BMP280;68315;48.608;11.436;2023-05-20T06:36:58;97201.63;;;17.60
78917;BMP280;68315;48.608;11.436;2023-05-20T06:39:24;97203.56;;;17.76
78917;BMP280;68315;48.608;11.436;2023-05-20T06:41:49;97203.28;;;17.91
78917;BMP280;68315;48.608;11.436;2023-05-20T06:44:16;97197.88;;;18.03
78917;BMP280;68315;48.608;11.436;2023-05-20T06:46:41;97191.03;;;18.13
78917;BMP280;68315;48.608;11.436;2023-05-20T06:49:07;97204.94;;;18.23
78917;BMP280;68315;48.608;11.436;2023-05-20T06:51:32;97198.03;;;18.33
78917;BMP280;68315;48.608;11.436;2023-05-20T06:53:57;97188.97;;;18.42
78917;BMP280;68315;48.608;11.436;2023-05-20T06:56:23;97189.22;;;18.56
78917;BMP280;68315;48.608;11.436;2023-05-20T06:58:48;97182.03;;;18.62
78917;BMP280;68315;48.608;11.436;2023-05-20T07:01:13;97182.19;;;18.74
78917;BMP280;68315;48.608;11.436;2023-05-20T07:03:38;97180.09;;;18.84
78917;BMP280;68315;48.608;11.436;2023-05-20T07:06:04;97173.44;;;18.99
78917;BMP280;68315;48.608;11.436;2023-05-20T07:08:29;97184.56;;;19.08
78917;BMP280;68315;48.608;11.436;2023-05-20T07:10:55;97177.38;;;19.15
78917;BMP280;68315;48.608;11.436;2023-05-20T07:13:21;97190.91;;;19.30
78917;BMP280;68315;48.608;11.436;2023-05-20T07:15:48;97185.91;;;19.38
78917;BMP280;68315;48.608;11.436;2023-05-20T07:18:13;97170.03;;;19.40
78917;BMP280;68315;48.608;11.436;2023-05-20T07:20:39;97172.78;;;19.50
78917;BMP280;68315;48.608;11.436;2023-05-20T07:23:04;97168.75;;;19.62
78917;BMP280;68315;48.608;11.436;2023-05-20T07:25:30;97174.34;;;19.74
78917;BMP280;68315;48.608;11.436;2023-05-20T07:27:55;97178.28;;;19.80
78917;BMP280;68315;48.608;11.436;2023-05-20T07:30:21;97177.38;;;19.88
78917;BMP280;68315;48.608;11.436;2023-05-20T07:32:49;97181.38;;;19.85
78917;BMP280;68315;48.608;11.436;2023-05-20T07:35:14;97177.22;;;19.86
78917;BMP280;68315;48.608;11.436;2023-05-20T07:37:40;97171.19;;;19.89
78917;BMP280;68315;48.608;11.436;2023-05-20T07:40:06;97166.22;;;19.99
78917;BMP280;68315;48.608;11.436;2023-05-20T07:42:31;97170.09;;;20.15
78917;BMP280;68315;48.608;11.436;2023-05-20T07:44:57;97166.53;;;20.36
78917;BMP280;68315;48.608;11.436;2023-05-20T07:47:25;97154.16;;;20.50
78917;BMP280;68315;48.608;11.436;2023-05-20T07:49:50;97158.69;;;20.67
78917;BMP280;68315;48.608;11.436;2023-05-20T07:52:16;97165.66;;;20.89
78917;BMP280;68315;48.608;11.436;2023-05-20T07:54:41;97155.69;;;21.09
78917;BMP280;68315;48.608;11.436;2023-05-20T07:57:06;97157.25;;;21.12
78917;BMP280;68315;48.608;11.436;2023-05-20T07:59:32;97159.97;;;21.22
78917;BMP280;68315;48.608;11.436;2023-05-20T08:01:59;97158.81;;;21.38
78917;BMP280;68315;48.608;11.436;2023-05-20T08:04:25;97150.06;;;21.44
78917;BMP280;68315;48.608;11.436;2023-05-20T08:06:51;97150.19;;;21.46
78917;BMP280;68315;48.608;11.436;2023-05-20T08:09:17;97149.22;;;21.41
78917;BMP280;68315;48.608;11.436;2023-05-20T08:11:43;97149.94;;;21.42
78917;BMP280;68315;48.608;11.436;2023-05-20T08:14:08;97147.72;;;21.63
78917;BMP280;68315;48.608;11.436;2023-05-20T08:16:34;97144.75;;;21.84
78917;BMP280;68315;48.608;11.436;2023-05-20T08:19:00;97145.78;;;21.91
78917;BMP280;68315;48.608;11.436;2023-05-20T08:21:25;97148.34;;;21.98
78917;BMP280;68315;48.608;11.436;2023-05-20T08:23:50;97140.03;;;22.00
78917;BMP280;68315;48.608;11.436;2023-05-20T08:26:16;97138.16;;;22.05
78917;BMP280;68315;48.608;11.436;2023-05-20T08:28:41;97144.63;;;22.07
78917;BMP280;68315;48.608;11.436;2023-05-20T08:31:06;97138.53;;;22.11
78917;BMP280;68315;48.608;11.436;2023-05-20T08:33:32;97134.09;;;22.19
78917;BMP280;68315;48.608;11.436;2023-05-20T08:35:57;97139.41;;;22.27
78917;BMP280;68315;48.608;11.436;2023-05-20T08:38:22;97135.94;;;22.40
78917;BMP280;68315;48.608;11.436;2023-05-20T08:40:55;97138.13;;;22.55
78917;BMP280;68315;48.608;11.436;2023-05-20T08:43:21;97135.38;;;22.69
78917;BMP280;68315;48.608;11.436;2023-05-20T08:45:47;97130.91;;;22.77
78917;BMP280;68315;48.608;11.436;2023-05-20T08:48:38;97129.69;;;22.94
78917;BMP280;68315;48.608;11.436;2023-05-20T08:51:33;97126.38;;;23.11
78917;BMP280;68315;48.608;11.436;2023-05-20T08:54:03;97128.03;;;23.16
78917;BMP280;68315;48.608;11.436;2023-05-20T08:56:35;97128.09;;;23.18
78917;BMP280;68315;48.608;11.436;2023-05-20T08:59:10;97120.72;;;23.24
78917;BMP280;68315;48.608;11.436;2023-05-20T09:01:44;97128.78;;;23.16
78917;BMP280;68315;48.608;11.436;2023-05-20T09:04:13;97126.25;;;23.09
78917;BMP280;68315;48.608;11.436;2023-05-20T09:06:46;97117.09;;;22.95
78917;BMP280;68315;48.608;11.436;2023-05-20T09:09:14;97117.34;;;22.85
78917;BMP280;68315;48.608;11.436;2023-05-20T09:11:43;97116.59;;;22.71
78917;BMP280;68315;48.608;11.436;2023-05-20T09:14:08;97119.19;;;22.81
78917;BMP280;68315;48.608;11.436;2023-05-20T09:16:38;97124.91;;;22.83
78917;BMP280;68315;48.608;11.436;2023-05-20T09:19:05;97116.50;;;22.83
78917;BMP280;68315;48.608;11.436;2023-05-20T09:21:31;97109.53;;;22.84
78917;BMP280;68315;48.608;11.436;2023-05-20T09:24:00;97102.69;;;22.87
78917;BMP280;68315;48.608;11.436;2023-05-20T09:26:29;97112.13;;;22.80
78917;BMP280;68315;48.608;11.436;2023-05-20T09:28:55;97112.97;;;22.82
78917;BMP280;68315;48.608;11.436;2023-05-20T09:31:25;97116.59;;;22.98
78917;BMP280;68315;48.608;11.436;2023-05-20T09:33:53;97128.22;;;23.20
78917;BMP280;68315;48.608;11.436;2023-05-20T09:36:22;97117.81;;;23.36
78917;BMP280;68315;48.608;11.436;2023-05-20T09:38:51;97124.09;;;23.63
78917;BMP280;68315;48.608;11.436;2023-05-20T09:41:29;97112.97;;;23.94
78917;BMP280;68315;48.608;11.436;2023-05-20T09:44:02;97120.84;;;23.98
78917;BMP280;68315;48.608;11.436;2023-05-20T09:46:28;97118.03;;;23.98
78917;BMP280;68315;48.608;11.436;2023-05-20T09:48:56;97117.84;;;23.94
78917;BMP280;68315;48.608;11.436;2023-05-20T09:51:22;97127.13;;;24.12
78917;BMP280;68315;48.608;11.436;2023-05-20T09:53:49;97117.75;;;24.37
78917;BMP280;68315;48.608;11.436;2023-05-20T09:56:17;97110.41;;;24.45
78917;BMP280;68315;48.608;11.436;2023-05-20T09:58:44;97108.59;;;24.36
78917;BMP280;68315;48.608;11.436;2023-05-20T10:01:10;97109.38;;;24.54
78917;BMP280;68315;48.608;11.436;2023-05-20T10:03:44;97099.13;;;24.76
78917;BMP280;68315;48.608;11.436;2023-05-20T10:11:34;97077.81;;;24.71
78917;BMP280;68315;48.608;11.436;2023-05-20T10:16:59;97072.69;;;24.50
78917;BMP280;68315;48.608;11.436;2023-05-20T10:19:31;97073.41;;;24.35
78917;BMP280;68315;48.608;11.436;2023-05-20T10:24:37;97086.53;;;24.46
78917;BMP280;68315;48.608;11.436;2023-05-20T10:27:11;97081.34;;;24.87
78917;BMP280;68315;48.608;11.436;2023-05-20T10:29:50;97075.78;;;25.22
78917;BMP280;68315;48.608;11.436;2023-05-20T10:32:30;97075.81;;;25.57
78917;BMP280;68315;48.608;11.436;2023-05-20T10:35:03;97068.22;;;25.79
78917;BMP280;68315;48.608;11.436;2023-05-20T10:37:49;97070.50;;;26.03
78917;BMP280;68315;48.608;11.436;2023-05-20T10:40:17;97062.25;;;26.26
78917;BMP280;68315;48.608;11.436;2023-05-20T10:42:50;97063.81;;;26.51
78917;BMP280;68315;48.608;11.436;2023-05-20T10:45:26;97062.81;;;26.62
78917;BMP280;68315;48.608;11.436;2023-05-20T10:47:57;97064.50;;;26.69
78917;BMP280;68315;48.608;11.436;2023-05-20T10:50:35;97053.06;;;26.65
78917;BMP280;68315;48.608;11.436;2023-05-20T10:53:05;97045.56;;;26.52
78917;BMP280;68315;48.608;11.436;2023-05-20T10:55:50;97042.38;;;26.61
78917;BMP280;68315;48.608;11.436;2023-05-20T10:58:16;97044.28;;;26.76
78917;BMP280;68315;48.608;11.436;2023-05-20T11:00:42;97043.78;;;26.82
78917;BMP280;68315;48.608;11.436;2023-05-20T11:03:12;97052.16;;;26.80
78917;BMP280;68315;48.608;11.436;2023-05-20T11:05:41;97040.75;;;26.76
78917;BMP280;68315;48.608;11.436;2023-05-20T11:08:07;97043.38;;;26.70
78917;BMP280;68315;48.608;11.436;2023-05-20T11:10:34;97036.84;;;26.44
78917;BMP280;68315;48.608;11.436;2023-05-20T11:13:00;97035.66;;;26.12
78917;BMP280;68315;48.608;11.436;2023-05-20T11:15:26;97033.66;;;25.77
78917;BMP280;68315;48.608;11.436;2023-05-20T11:17:56;97031.09;;;25.48
78917;BMP280;68315;48.608;11.436;2023-05-20T11:20:25;97034.31;;;25.23
78917;BMP280;68315;48.608;11.436;2023-05-20T11:22:50;97025.94;;;25.07
78917;BMP280;68315;48.608;11.436;2023-05-20T11:25:17;97021.81;;;24.93
78917;BMP280;68315;48.608;11.436;2023-05-20T11:27:43;97033.47;;;24.85
78917;BMP280;68315;48.608;11.436;2023-05-20T11:30:13;97035.09;;;24.90
78917;BMP280;68315;48.608;11.436;2023-05-20T11:33:03;97029.81;;;24.98
78917;BMP280;68315;48.608;11.436;2023-05-20T11:35:30;97030.41;;;24.97
78917;BMP280;68315;48.608;11.436;2023-05-20T11:38:00;97024.97;;;25.01
78917;BMP280;68315;48.608;11.436;2023-05-20T11:40:26;97031.50;;;25.05
78917;BMP280;68315;48.608;11.436;2023-05-20T11:42:56;97028.75;;;25.07
78917;BMP280;68315;48.608;11.436;2023-05-20T11:45:22;97024.56;;;25.08
78917;BMP280;68315;48.608;11.436;2023-05-20T11:48:03;97019.13;;;25.12
78917;BMP280;68315;48.608;11.436;2023-05-20T11:50:36;97013.75;;;25.18
78917;BMP280;68315;48.608;11.436;2023-05-20T11:53:07;97022.34;;;25.40
78917;BMP280;68315;48.608;11.436;2023-05-20T11:55:33;97020.50;;;25.83
78917;BMP280;68315;48.608;11.436;2023-05-20T11:58:02;97005.16;;;26.26
78917;BMP280;68315;48.608;11.436;2023-05-20T12:00:27;97006.97;;;26.56
78917;BMP280;68315;48.608;11.436;2023-05-20T12:02:53;97002.66;;;26.75
78917;BMP280;68315;48.608;11.436;2023-05-20T12:05:18;97005.63;;;26.79
78917;BMP280;68315;48.608;11.436;2023-05-20T12:07:44;97005.50;;;26.75
78917;BMP280;68315;48.608;11.436;2023-05-20T12:10:10;97006.63;;;26.68
78917;BMP280;68315;48.608;11.436;2023-05-20T12:12:35;97005.94;;;26.48
78917;BMP280;68315;48.608;11.436;2023-05-20T12:15:04;97001.56;;;26.23
78917;BMP280;68315;48.608;11.436;2023-05-20T12:17:33;97009.22;;;26.01
78917;BMP280;68315;48.608;11.436;2023-05-20T12:19:58;97004.91;;;25.80
78917;BMP280;68315;48.608;11.436;2023-05-20T12:22:24;97002.03;;;25.78
78917;BMP280;68315;48.608;11.436;2023-05-20T12:24:49;97011.16;;;25.97
78917;BMP280;68315;48.608;11.436;2023-05-20T12:27:14;96995.97;;;26.25
78917;BMP280;68315;48.608;11.436;2023-05-20T12:29:40;96997.00;;;26.53
78917;BMP280;68315;48.608;11.436;2023-05-20T12:32:05;97006.53;;;26.85
78917;BMP280;68315;48.608;11.436;2023-05-20T12:34:31;97008.72;;;27.08
78917;BMP280;68315;48.608;11.436;2023-05-20T12:37:00;96997.28;;;27.26
78917;BMP280;68315;48.608;11.436;2023-05-20T12:39:25;96997.88;;;27.22
78917;BMP280;68315;48.608;11.436;2023-05-20T12:41:50;96993.66;;;27.23
78917;BMP280;68315;48.608;11.436;2023-05-20T12:44:16;97000.56;;;27.18
78917;BMP280;68315;48.608;11.436;2023-05-20T12:46:41;96995.88;;;27.27
78917;BMP280;68315;48.608;11.436;2023-05-20T12:49:06;96986.16;;;27.32
78917;BMP280;68315;48.608;11.436;2023-05-20T12:51:32;96989.41;;;27.46
78917;BMP280;68315;48.608;11.436;2023-05-20T12:53:57;96988.09;;;27.72
78917;BMP280;68315;48.608;11.436;2023-05-20T12:56:23;96993.47;;;27.88
78917;BMP280;68315;48.608;11.436;2023-05-20T12:58:52;96988.47;;;27.84
78917;BMP280;68315;48.608;11.436;2023-05-20T13:01:20;96996.72;;;28.02
78917;BMP280;68315;48.608;11.436;2023-05-20T13:03:45;96987.31;;;28.19
78917;BMP280;68315;48.608;11.436;2023-05-20T13:06:11;96991.63;;;28.22
78917;BMP280;68315;48.608;11.436;2023-05-20T13:08:39;96982.97;;;28.16
78917;BMP280;68315;48.608;11.436;2023-05-20T13:11:05;96986.13;;;28.03
78917;BMP280;68315;48.608;11.436;2023-05-20T13:13:32;96989.25;;;27.87
78917;BMP280;68315;48.608;11.436;2023-05-20T13:15:57;96981.09;;;27.73
78917;BMP280;68315;48.608;11.436;2023-05-20T13:18:26;96978.47;;;27.81
78917;BMP280;68315;48.608;11.436;2023-05-20T13:20:51;96988.47;;;27.84
78917;BMP280;68315;48.608;11.436;2023-05-20T13:23:16;96979.94;;;28.08
78917;BMP280;68315;48.608;11.436;2023-05-20T13:25:42;96974.50;;;28.16
78917;BMP280;68315;48.608;11.436;2023-05-20T13:28:10;96964.69;;;28.19
78917;BMP280;68315;48.608;11.436;2023-05-20T13:30:40;96967.81;;;28.29
78917;BMP280;68315;48.608;11.436;2023-05-20T13:33:05;96974.72;;;28.24
78917;BMP280;68315;48.608;11.436;2023-05-20T13:35:31;96968.97;;;28.20
78917;BMP280;68315;48.608;11.436;2023-05-20T13:37:56;96961.13;;;28.19
78917;BMP280;68315;48.608;11.436;2023-05-20T13:40:21;96964.03;;;28.21
78917;BMP280;68315;48.608;11.436;2023-05-20T13:42:49;96953.50;;;28.23
78917;BMP280;68315;48.608;11.436;2023-05-20T13:45:15;96958.44;;;27.97
78917;BMP280;68315;48.608;11.436;2023-05-20T13:47:40;96949.16;;;27.69
78917;BMP280;68315;48.608;11.436;2023-05-20T13:50:06;96949.78;;;27.65
78917;BMP280;68315;48.608;11.436;2023-05-20T13:52:38;96934.16;;;27.62
78917;BMP280;68315;48.608;11.436;2023-05-20T13:55:04;96941.69;;;27.79
78917;BMP280;68315;48.608;11.436;2023-05-20T13:57:29;96933.72;;;27.98
78917;BMP280;68315;48.608;11.436;2023-05-20T13:59:54;96938.78;;;28.01
78917;BMP280;68315;48.608;11.436;2023-05-20T14:02:20;96933.22;;;28.05
78917;BMP280;68315;48.608;11.436;2023-05-20T14:04:45;96934.63;;;28.04